メインページ
METAR-TAF:

METAR-TAF

空港 :

Kapuskasing, オンタリオ州, カナダ

緯度: 49-25N, 経度: 082-28W, 海抜: 227m

現時点の気象観測

当レポートは37分前の02:00(UTC)に作成
西/北西の風 7kt
気温 -15°C
湿度 85%
気圧 1024 hPa
視程: 19.3km
高度1100ftの曇り
小雪

METAR: CYYU 070200Z 30007KT 12SM -SN OVC011 M15/M17 A3023 RMK SC8 SLP260

時間: 21:37 (02:37 UTC)

予報

当レポートは59分前の01:38(UTC)に作成
予報は07日の 02時(UTC)から 07日の 14時(UTC)まで有効
北西の風 8kt
視程: 8.0km
高度1200ftの曇り
小雪
07日の 02時(UTC)から 07日の 06時(UTC)まで一時的に
視程: 10km
高度1200ftの雲は散在している
高度2500ftの千切れ雲あり
07日の 0600時(UTC)から
南/南西の風 5kt
視程: 10km
高度1500ftの雲はほとんどない
07日の 06時(UTC)から 07日の 08時(UTC)まで一時的に
高度1500ftの千切れ雲あり
07日の 1100時(UTC)から
南/南西の風 8kt
高度1000ftの曇り
小雪
07日の 11時(UTC)から 07日の 14時(UTC)まで一時的に
視程: 9.7km
高度1000ftの雲は散在している
高度2500ftの曇り
小雪

TAF: CYYU 070138Z 0702/0714 32008KT 5SM -SN OVC012 TEMPO 0702/0706 P6SM NSW SCT012 BKN025 FM070600 21005KT P6SM FEW015 TEMPO 0706/0708 BKN015 FM071100 20008KT 11/2SM -SN OVC010 TEMPO 0711/0714 6SM -SN SCT010 OVC025 RMK NXT FCST BY 070800Z

4,000以上の空港の気象観測と天気予報(METAR報とTAF報)

利用可能な観測所は地図上に黄色い丸と赤い丸で示す。

丸の上にカーソルを重ねると観測所名を参照できる。

次にクリックすると気象観測と天気予報を参照できる。

マップの切り替え:黒色「×」印の緑ボタンをクリックして拡大、「-」印の緑ボタンをクリックして縮小、緑色の三角印をクリックして隣りの地図に切り替え


METAR-TAF: